DATE METEO

IERI
Time Temp. Dewp. Hum. Wind dir Wind speed Wind gust Bar.
00:05 -1.9 -7.5 62 0 0 1030.8
00:16 -2 -7.6 62 0 0 1030.5
00:26 -2 -7.6 62 0 0 1030.9
00:35 -2.1 -7.5 63 0 0 1031
00:46 -2 -7.6 62 0 0 1030.9
00:56 -2.2 -7.8 62 0 0 1030.9
01:06 -2.2 -7.8 62 0 0 1031
01:16 -2.2 -7.8 62 0 0 1031
01:26 -2.4 -8 62 0 0 1030.8
01:36 -2.5 -7.9 63 0 0 1030.9
01:46 -2.5 -7.9 63 0 0 1030.9
01:57 -2.7 -8.1 63 0 0 1031.1
02:06 -2.8 -8 64 0 0 1031
02:16 -2.8 -8 64 0 0 1031
02:26 -3 -8.2 64 0 0 1030.9
02:37 -3.1 -8.1 65 0 0 1030.9
02:47 -3.1 -8.1 65 0 0 1030.9
02:56 -3.2 -8.2 65 0 0 1030.9
03:07 -3.2 -8.2 65 0 0 1031
03:17 -3.1 -8.1 65 0 0 1031.1
03:27 -3.1 -8.3 64 0 0 1031
03:36 -3 -8.2 64 0 0 1031.2
03:47 -2.8 -8 64 0 0 1031.1
03:57 -2.8 -8 64 0 0 1031
04:07 -2.8 -8 64 0 0 1031.1
04:17 -2.9 -8.1 64 0 0 1031.1
04:27 -2.9 -8.1 64 0 0 1031.1
04:37 -2.9 -8.1 64 0 0 1031.1
04:47 -3 -8.2 64 0 0 1030.8
04:58 -3.1 -8.3 64 0 0 1030.9
05:07 -3.2 -8.4 64 0 0 1030.8
05:17 -3.2 -8.2 65 0 0 1030.9
05:28 -3.3 -8.3 65 0 0 1030.8
05:38 -3.5 -8.5 65 0 0 1030.9
05:47 -3.7 -8.7 65 0 0 1031
05:57 -3.8 -8.8 65 0 0 1031.1
06:08 -3.9 -8.7 66 0 0 1031.1
06:18 -4 -8.8 66 0 0 1031.2
06:28 -4.1 -8.9 66 0 0 1031.3
06:38 -4.3 -9.1 66 0 0 1031.1
06:48 -4.3 -8.9 67 0 0 1031.2
06:58 -4.3 -8.9 67 0 0 1031.2
07:08 -4.1 -8.7 67 0 0 1031.2
07:18 -4.1 -8.7 67 0 0 1031.4
07:28 -4.1 -8.7 67 0 0 1031.6
07:38 -4.1 -8.7 67 0 0 1031.6
07:49 -4.2 -8.8 67 0 0 1031.8
07:58 -4.1 -8.7 67 0 0 1032
08:08 -4.1 -8.7 67 0 0 1032
08:18 -4.1 -8.7 67 0 0 1032.2
08:29 -4 -8.6 67 0 0 1032.2
08:39 -3.8 -8.4 67 0 0 1032.3
08:48 -3.8 -8.4 67 0 0 1032.1
08:59 -3.8 -8.4 67 0 0 1032.3
09:09 -3.8 -8.4 67 0 0 1032.3
09:19 -3.8 -8.3 68 0 0 1032.2
09:29 -3.8 -8.3 68 0 0 1032.3
09:39 -3.7 -8.2 68 0 0 1032.6
09:49 -3.2 -7.5 69 0 0 1032.5
09:59 -2.5 -7 68 0 0 1032.6
10:10 -1.7 -6.4 67 0 0 1032.5
10:19 -1 -5.9 66 0 0 1032.7
10:29 -0.2 -5.3 65 0 0 1032.6
10:39 0.5 -4.9 64 0 0 1032.7
10:50 1.1 -4.8 62 0 0 1032.6
10:59 1.5 -4.8 60 0 0 1032.5
11:09 1.9 -4.7 59 0 0 1032.5
11:20 2.3 -4.5 58 0 0 1032.3
11:30 2.6 -4.5 57 0 0 1032.3
11:40 2.8 -4.3 57 0 0 1032.1
11:50 3 -4.4 56 0 0 1032.1
12:00 3.1 -4.5 55 0 0 1031.9
12:10 3.3 -4.1 56 0 0 1031.9
12:20 3.4 -4.2 55 0 0 1031.9
12:30 3.4 -4 56 0 0 1031.7
12:40 3.5 -3.9 56 0 0 1031.7
12:50 3.5 -3.9 56 0 0 1031.4
13:00 3.5 -3.7 57 0 0 1031.3
13:11 3.5 -3.9 56 0 0 1031.3
13:20 3.5 -3.9 56 0 0 1031.2
13:30 3.6 -3.9 56 0 0 1031.1
13:41 3.6 -3.9 56 0 0 1030.8
13:51 3.6 -3.9 56 0 0 1030.4
14:00 3.6 -4.1 55 0 0 1030.4
14:11 3.6 -4.3 54 0 0 1030.3
14:21 3.5 -4.4 54 0 0 1030.3
14:31 3.5 -4.4 54 0 0 1030.2
14:40 3.5 -4.1 55 0 0 1030.3
14:51 3.4 -4 56 0 0 1029.8
15:01 3.3 -4.1 56 0 0 1030
15:11 2.9 -4.4 56 0 0 1029.7
15:21 2.4 -4.9 56 0 0 1029.6
15:31 2 -5.2 56 0 0 1029.6
15:41 1.7 -5.2 57 0 0 1029.5
15:51 1.3 -5.4 58 0 0 1029.5
16:02 0.9 -5.5 59 0 0 1029.4
16:11 0.7 -5.7 59 0 0 1029.2
16:21 0.4 -5.7 60 0 0 1029.3
16:31 0.1 -6 60 0 0 1029.2
16:42 0 -5.9 61 0 0 1029.3
16:52 -0.3 -6.2 61 0 0 1029.3
17:01 -0.6 -6.3 62 0 0 1029.3
17:12 -0.9 -6.5 62 0 0 1029.1
17:22 -1.2 -6.6 63 0 0 1029.2
17:32 -1.4 -6.8 63 0 0 1029.1
17:42 -1.6 -6.9 64 0 0 1029.2
17:52 -1.8 -7 64 0 0 1028.9
18:02 -2 -7.1 65 0 0 1029.1
18:12 -2.1 -7.2 65 0 0 1028.9
18:22 -2.2 -7.1 66 0 0 1028.9
18:32 -2.5 -7.5 65 0 0 1028.8
18:42 -2.7 -7.6 66 0 0 1029.1
18:52 -2.9 -7.7 66 0 0 1029.2
19:03 -3.1 -7.9 66 0 0 1029.2
19:12 -3.2 -7.9 67 0 0 1029.1
19:22 -3.4 -8.1 67 0 0 1029.2
19:33 -3.5 -8 68 0 0 1029.1
19:43 -3.6 -8.1 68 0 0 1028.9
19:52 -3.8 -8.3 68 0 0 1028.8
20:03 -3.9 -8.4 68 0 0 1028.8
20:13 -4 -8.5 68 0 0 1028.7
20:23 -4.2 -8.7 68 0 0 1028.5
20:33 -4.3 -8.6 69 0 0 1028.6
20:43 -4.4 -8.7 69 0 0 1028.6
20:53 -4.5 -8.8 69 0 0 1028.4
21:03 -4.6 -8.9 69 0 0 1028.3
21:13 -4.7 -8.8 70 0 0 1028.3
21:24 -4.9 -9 70 0 0 1028.3
21:33 -4.9 -9 70 0 0 1028.1
21:43 -5 -8.9 71 0 0 1027.9
21:54 -5.1 -9 71 0 0 1028
22:04 -5.2 -9.1 71 0 0 1028
22:13 -5.2 -9.1 71 0 0 1027.8
22:23 -5.3 -9.2 71 0 0 1027.8
22:34 -5.4 -9.2 72 0 0 1027.7
22:44 -5.4 -9.2 72 0 0 1027.5
22:54 -5.5 -9.3 72 0 0 1027.5
23:04 -5.6 -9.4 72 0 0 1027.6
23:14 -5.7 -9.5 72 0 0 1027.6
23:24 -5.7 -9.5 72 0 0 1027.5
23:34 -5.8 -9.4 73 0 0 1027.3
23:45 -5.8 -9.4 73 0 0 1027.5
23:54 -5.9 -9.5 73 0 0 1027.2

STATISTICILE ZILEI

2020-01-23
TEMPERATURA
MEDIA
-1.9
MAXIM
3.6
13:30
MINIM
-5.9
23:54
PRESIUNEA
MEDIA
1030.4
MAXIM
1032.7
10:19
MINIM
1027.2
23:54
PUNCTUL DE ROUĂ
MEDIA
-7.2
MAXIM
-3.7
13:00
MINIM
-9.5
23:14
UMIDITATEA
MEDIA
64
MAXIM
73
23:34
MINIM
54
14:11
WIND SPEED
MEDIA
0.0
MAXIM
0.0
08:50
WIND GUST
MEDIA
0.0
MAXIM
0.0
08:50
WIND DIRECTION
PREVAILING
%
TEMPERATURA (°C)
MINIM
-5.9
MAXIM
3.6
MEDIA
-1.9
PRESIUNEA (hpa)
MINIM
1027.2
MAXIM
1032.7
MEDIA
1030.4
STATIA METEO